Pattaya, Thailand

9:51 PM ICT on July 30, 2014 (GMT +0700)
Jomtien (ICHONBUR5) Elev 115 ft | 12.90 °N, 100.87 °E | Change Station

Current weather conditions updated 1 minute ago

Mostly Cloudy
Mostly Cloudy
84.7 °F
Feels Like 96 °F
N
0.0
Wind Variable Wind from North
Gusts 0.0 mph

Tomorrow is forecast to be nearly the same temperature as today.

Today
High -- | Low -- °F
--% Chance of Precip.
Yesterday
High -- | Low -- °F
Precip. -- in
6:01 AM 6:44 PM
Waxing Crescent, 12% visible
Pressure 29.74 in
Visibility 5.0 miles
Clouds Few 2000 ft
Mostly Cloudy 30000 ft
Heat Index 96 °F
Dew Point 78 °F
Humidity 81%
Rainfall 0.00 in
Snow Depth Not available.
UV 0 out of 12
Pollen Not available.
Air Quality Not available.
Flu Activity Not available.
METAR VTBU 301430Z 23004KT 8000 FEW020 BKN300 29/26 Q1007 A2975

More Conditions Fewer Conditions

Pressure 29.74 in
Visibility 5.0 miles
Clouds Few 2000 ft
Mostly Cloudy 30000 ft
Heat Index 96 °F
Dew Point 78 °F
Humidity 81%
Rainfall 0.00 in
Snow Depth Not available.
UV 0 out of 12
Pollen Not available.
Air Quality Not available.
Flu Activity Not available.
METAR VTBU 301430Z 23004KT 8000 FEW020 BKN300 29/26 Q1007 A2975

More Conditions Fewer Conditions

10-Day Weather Forecast

Almanac

Astronomy

Jul. 30, 2014 Rise Set
Actual Time 6:01 AM ICT 6:44 PM ICT
Civil Twilight 5:39 AM ICT 7:06 PM ICT
Nautical Twilight 5:12 AM ICT 7:33 PM ICT
Astronomical Twilight 4:45 AM ICT 7:59 PM ICT
Moon 8:26 AM ICT 8:53 PM ICT
Length of Visible Light 13h 27m
Length of Day
12h 42m
Tomorrow will be 0m 30s shorter.
Waxing Crescent, 12% of the Moon is Illuminated
Today
Waxing Crescent
Aug 3
First Quarter
Aug 10
Full
Aug 17
Last Quarter
Aug 25
New

Today's Extremes

Country Highs Country Lows

Community

WunderPhotos

Upload Photos

1,739,101 photos uploaded!

WunderBlogs® & News

Nearby

Snow Depth

Not available.

Earthquake Activity

City Distance Mag. Time & Date
No recent earthquake activity has been reported nearby.
Minimum magnitude displayed is 2.5.

Coastal Water Temperatures

Place Temperature
No Stations Reporting

Nearby Weather Stations

Station Location Temp. Heat Index Dew Point Humidity Wind Precip. Elev Updated Type
Jomtien, Jomtien 84.7 °F 96 °F 78 °F 81% North  at  0.0 mph 0.00 in / hr 115 ft 9:50 PM ICT Normal
Pattaya, Pattaya 85.1 °F 100 °F 80 °F 86% SE  at  0.0 mph 0.00 in / hr 141 ft 9:50 PM ICT Normal

Show More Stations Show Fewer Stations